sensor_id;sensor_type;location;lat;lon;timestamp;P1;durP1;ratioP1;P2;durP2;ratioP2
54787;SDS011;59598;48.112;16.280;2023-02-01T00:01:29;0.93;;;0.93;;
54787;SDS011;59598;48.112;16.280;2023-02-01T00:04:01;1.30;;;1.20;;
54787;SDS011;59598;48.112;16.280;2023-02-01T00:06:32;0.80;;;0.80;;
54787;SDS011;59598;48.112;16.280;2023-02-01T00:09:04;1.10;;;1.00;;
54787;SDS011;59598;48.112;16.280;2023-02-01T00:11:37;1.30;;;1.20;;
54787;SDS011;59598;48.112;16.280;2023-02-01T00:14:08;0.82;;;0.82;;
54787;SDS011;59598;48.112;16.280;2023-02-01T00:16:41;1.10;;;1.00;;
54787;SDS011;59598;48.112;16.280;2023-02-01T00:19:14;1.10;;;1.08;;
54787;SDS011;59598;48.112;16.280;2023-02-01T00:21:47;2.63;;;1.42;;
54787;SDS011;59598;48.112;16.280;2023-02-01T00:24:19;1.58;;;1.17;;
54787;SDS011;59598;48.112;16.280;2023-02-01T00:26:50;1.00;;;0.90;;
54787;SDS011;59598;48.112;16.280;2023-02-01T00:29:21;3.13;;;1.35;;
54787;SDS011;59598;48.112;16.280;2023-02-01T00:31:54;1.92;;;1.73;;
54787;SDS011;59598;48.112;16.280;2023-02-01T00:34:28;1.63;;;1.33;;
54787;SDS011;59598;48.112;16.280;2023-02-01T00:37:01;2.42;;;1.52;;
54787;SDS011;59598;48.112;16.280;2023-02-01T00:39:35;1.50;;;1.40;;
54787;SDS011;59598;48.112;16.280;2023-02-01T00:42:06;3.13;;;1.65;;
54787;SDS011;59598;48.112;16.280;2023-02-01T00:44:37;3.00;;;1.65;;
54787;SDS011;59598;48.112;16.280;2023-02-01T00:47:11;1.20;;;1.10;;
54787;SDS011;59598;48.112;16.280;2023-02-01T00:49:42;1.48;;;1.38;;
54787;SDS011;59598;48.112;16.280;2023-02-01T00:52:13;1.83;;;1.60;;
54787;SDS011;59598;48.112;16.280;2023-02-01T00:54:50;1.65;;;1.55;;
54787;SDS011;59598;48.112;16.280;2023-02-01T00:57:21;1.35;;;1.25;;
54787;SDS011;59598;48.112;16.280;2023-02-01T00:59:52;3.90;;;2.00;;
54787;SDS011;59598;48.112;16.280;2023-02-01T01:02:24;1.85;;;1.75;;
54787;SDS011;59598;48.112;16.280;2023-02-01T01:05:02;2.85;;;1.75;;
54787;SDS011;59598;48.112;16.280;2023-02-01T01:07:36;2.22;;;1.58;;
54787;SDS011;59598;48.112;16.280;2023-02-01T01:10:07;1.92;;;1.50;;
54787;SDS011;59598;48.112;16.280;2023-02-01T01:12:38;1.83;;;1.35;;
54787;SDS011;59598;48.112;16.280;2023-02-01T01:17:44;1.35;;;1.00;;
54787;SDS011;59598;48.112;16.280;2023-02-01T01:20:17;1.30;;;1.10;;
54787;SDS011;59598;48.112;16.280;2023-02-01T01:22:54;1.60;;;1.40;;
54787;SDS011;59598;48.112;16.280;2023-02-01T01:25:28;1.30;;;1.20;;
54787;SDS011;59598;48.112;16.280;2023-02-01T01:28:02;1.17;;;1.10;;
54787;SDS011;59598;48.112;16.280;2023-02-01T01:30:34;3.50;;;1.75;;
54787;SDS011;59598;48.112;16.280;2023-02-01T01:33:12;1.63;;;1.45;;
54787;SDS011;59598;48.112;16.280;2023-02-01T01:35:45;1.95;;;1.60;;
54787;SDS011;59598;48.112;16.280;2023-02-01T01:38:16;1.60;;;1.33;;
54787;SDS011;59598;48.112;16.280;2023-02-01T01:40:47;1.95;;;1.50;;
54787;SDS011;59598;48.112;16.280;2023-02-01T01:43:23;1.95;;;1.65;;
54787;SDS011;59598;48.112;16.280;2023-02-01T01:45:57;2.17;;;1.67;;
54787;SDS011;59598;48.112;16.280;2023-02-01T01:48:28;1.55;;;1.40;;
54787;SDS011;59598;48.112;16.280;2023-02-01T01:51:08;1.40;;;1.30;;
54787;SDS011;59598;48.112;16.280;2023-02-01T01:53:45;1.45;;;1.30;;
54787;SDS011;59598;48.112;16.280;2023-02-01T01:56:28;2.50;;;1.75;;
54787;SDS011;59598;48.112;16.280;2023-02-01T01:59:03;1.13;;;1.02;;
54787;SDS011;59598;48.112;16.280;2023-02-01T02:01:38;1.60;;;1.50;;
54787;SDS011;59598;48.112;16.280;2023-02-01T02:04:09;2.50;;;1.15;;
54787;SDS011;59598;48.112;16.280;2023-02-01T02:06:45;1.65;;;1.52;;
54787;SDS011;59598;48.112;16.280;2023-02-01T02:09:47;2.93;;;1.33;;
54787;SDS011;59598;48.112;16.280;2023-02-01T02:12:18;1.13;;;1.02;;
54787;SDS011;59598;48.112;16.280;2023-02-01T02:14:52;1.15;;;1.05;;
54787;SDS011;59598;48.112;16.280;2023-02-01T02:17:31;1.52;;;0.95;;
54787;SDS011;59598;48.112;16.280;2023-02-01T02:42:17;2.17;;;1.38;;
54787;SDS011;59598;48.112;16.280;2023-02-01T02:45:20;1.52;;;1.42;;
54787;SDS011;59598;48.112;16.280;2023-02-01T02:48:24;1.25;;;1.02;;
54787;SDS011;59598;48.112;16.280;2023-02-01T02:54:48;1.40;;;1.30;;
54787;SDS011;59598;48.112;16.280;2023-02-01T03:00:24;1.73;;;1.52;;
54787;SDS011;59598;48.112;16.280;2023-02-01T03:03:18;1.65;;;1.55;;
54787;SDS011;59598;48.112;16.280;2023-02-01T03:06:14;1.23;;;1.13;;
54787;SDS011;59598;48.112;16.280;2023-02-01T03:08:48;1.23;;;1.08;;
54787;SDS011;59598;48.112;16.280;2023-02-01T03:11:27;1.80;;;1.65;;
54787;SDS011;59598;48.112;16.280;2023-02-01T03:14:20;1.85;;;1.45;;
54787;SDS011;59598;48.112;16.280;2023-02-01T03:16:54;1.65;;;1.25;;
54787;SDS011;59598;48.112;16.280;2023-02-01T03:19:33;1.55;;;1.23;;
54787;SDS011;59598;48.112;16.280;2023-02-01T03:22:14;1.40;;;1.30;;
54787;SDS011;59598;48.112;16.280;2023-02-01T03:24:55;1.85;;;1.67;;
54787;SDS011;59598;48.112;16.280;2023-02-01T03:27:42;1.98;;;1.42;;
54787;SDS011;59598;48.112;16.280;2023-02-01T03:30:40;5.03;;;1.83;;
54787;SDS011;59598;48.112;16.280;2023-02-01T03:33:14;1.58;;;1.30;;
54787;SDS011;59598;48.112;16.280;2023-02-01T03:39:11;2.20;;;1.52;;
54787;SDS011;59598;48.112;16.280;2023-02-01T03:41:53;3.97;;;1.77;;
54787;SDS011;59598;48.112;16.280;2023-02-01T03:45:05;4.35;;;2.20;;
54787;SDS011;59598;48.112;16.280;2023-02-01T03:47:39;3.03;;;1.77;;
54787;SDS011;59598;48.112;16.280;2023-02-01T03:50:14;1.40;;;1.30;;
54787;SDS011;59598;48.112;16.280;2023-02-01T03:53:16;2.00;;;1.80;;
54787;SDS011;59598;48.112;16.280;2023-02-01T03:55:57;2.25;;;1.70;;
54787;SDS011;59598;48.112;16.280;2023-02-01T03:58:29;2.40;;;2.10;;
54787;SDS011;59598;48.112;16.280;2023-02-01T04:03:34;2.08;;;1.85;;
54787;SDS011;59598;48.112;16.280;2023-02-01T04:06:05;2.30;;;1.92;;
54787;SDS011;59598;48.112;16.280;2023-02-01T04:08:37;4.25;;;2.25;;
54787;SDS011;59598;48.112;16.280;2023-02-01T04:11:08;2.15;;;1.98;;
54787;SDS011;59598;48.112;16.280;2023-02-01T04:13:41;3.97;;;2.10;;
54787;SDS011;59598;48.112;16.280;2023-02-01T04:16:17;2.80;;;2.00;;
54787;SDS011;59598;48.112;16.280;2023-02-01T04:18:50;3.33;;;1.67;;
54787;SDS011;59598;48.112;16.280;2023-02-01T04:21:27;2.65;;;2.00;;
54787;SDS011;59598;48.112;16.280;2023-02-01T04:23:58;3.70;;;2.17;;
54787;SDS011;59598;48.112;16.280;2023-02-01T04:26:32;2.30;;;2.00;;
54787;SDS011;59598;48.112;16.280;2023-02-01T04:29:10;2.60;;;2.10;;
54787;SDS011;59598;48.112;16.280;2023-02-01T04:31:42;4.90;;;2.23;;
54787;SDS011;59598;48.112;16.280;2023-02-01T04:34:15;2.80;;;2.05;;
54787;SDS011;59598;48.112;16.280;2023-02-01T04:36:47;3.38;;;2.03;;
54787;SDS011;59598;48.112;16.280;2023-02-01T04:39:18;2.80;;;2.08;;
54787;SDS011;59598;48.112;16.280;2023-02-01T04:41:49;2.50;;;1.65;;
54787;SDS011;59598;48.112;16.280;2023-02-01T04:44:21;4.38;;;1.83;;
54787;SDS011;59598;48.112;16.280;2023-02-01T04:46:55;3.40;;;2.03;;
54787;SDS011;59598;48.112;16.280;2023-02-01T04:49:29;3.25;;;2.17;;
54787;SDS011;59598;48.112;16.280;2023-02-01T04:52:00;3.30;;;1.70;;
54787;SDS011;59598;48.112;16.280;2023-02-01T04:54:34;2.28;;;1.73;;
54787;SDS011;59598;48.112;16.280;2023-02-01T04:57:08;2.35;;;1.88;;
54787;SDS011;59598;48.112;16.280;2023-02-01T04:59:43;2.33;;;1.98;;
54787;SDS011;59598;48.112;16.280;2023-02-01T05:02:15;3.25;;;1.27;;
54787;SDS011;59598;48.112;16.280;2023-02-01T05:04:48;1.70;;;1.60;;
54787;SDS011;59598;48.112;16.280;2023-02-01T05:07:22;2.92;;;2.20;;
54787;SDS011;59598;48.112;16.280;2023-02-01T05:09:56;1.70;;;1.47;;
54787;SDS011;59598;48.112;16.280;2023-02-01T05:12:27;2.05;;;1.85;;
54787;SDS011;59598;48.112;16.280;2023-02-01T05:15:17;2.55;;;2.03;;
54787;SDS011;59598;48.112;16.280;2023-02-01T05:17:48;1.67;;;1.58;;
54787;SDS011;59598;48.112;16.280;2023-02-01T05:20:20;2.25;;;1.85;;
54787;SDS011;59598;48.112;16.280;2023-02-01T05:22:51;2.45;;;2.15;;
54787;SDS011;59598;48.112;16.280;2023-02-01T05:25:22;2.97;;;2.20;;
54787;SDS011;59598;48.112;16.280;2023-02-01T05:27:54;3.55;;;2.55;;
54787;SDS011;59598;48.112;16.280;2023-02-01T05:30:25;2.08;;;1.88;;
54787;SDS011;59598;48.112;16.280;2023-02-01T05:32:56;2.10;;;1.90;;
54787;SDS011;59598;48.112;16.280;2023-02-01T05:35:27;2.05;;;1.80;;
54787;SDS011;59598;48.112;16.280;2023-02-01T05:37:58;1.92;;;1.67;;
54787;SDS011;59598;48.112;16.280;2023-02-01T05:40:30;2.33;;;1.88;;
54787;SDS011;59598;48.112;16.280;2023-02-01T05:43:01;2.20;;;2.00;;
54787;SDS011;59598;48.112;16.280;2023-02-01T05:45:32;3.72;;;1.98;;
54787;SDS011;59598;48.112;16.280;2023-02-01T05:48:03;3.50;;;2.15;;
54787;SDS011;59598;48.112;16.280;2023-02-01T05:50:37;2.35;;;2.05;;
54787;SDS011;59598;48.112;16.280;2023-02-01T05:53:12;2.80;;;1.80;;
54787;SDS011;59598;48.112;16.280;2023-02-01T05:55:43;2.97;;;2.08;;
54787;SDS011;59598;48.112;16.280;2023-02-01T05:58:15;2.83;;;1.80;;
54787;SDS011;59598;48.112;16.280;2023-02-01T06:00:48;3.05;;;1.45;;
54787;SDS011;59598;48.112;16.280;2023-02-01T06:03:19;3.72;;;2.10;;
54787;SDS011;59598;48.112;16.280;2023-02-01T06:05:51;2.47;;;1.75;;
54787;SDS011;59598;48.112;16.280;2023-02-01T06:08:24;2.95;;;2.65;;
54787;SDS011;59598;48.112;16.280;2023-02-01T06:10:59;2.60;;;2.13;;
54787;SDS011;59598;48.112;16.280;2023-02-01T06:13:32;3.63;;;2.20;;
54787;SDS011;59598;48.112;16.280;2023-02-01T06:16:03;3.70;;;2.28;;
54787;SDS011;59598;48.112;16.280;2023-02-01T06:18:37;3.75;;;2.30;;
54787;SDS011;59598;48.112;16.280;2023-02-01T06:21:11;2.80;;;1.85;;
54787;SDS011;59598;48.112;16.280;2023-02-01T06:23:47;5.47;;;2.17;;
54787;SDS011;59598;48.112;16.280;2023-02-01T06:26:19;2.20;;;1.67;;
54787;SDS011;59598;48.112;16.280;2023-02-01T06:28:50;2.45;;;1.98;;
54787;SDS011;59598;48.112;16.280;2023-02-01T06:31:22;1.50;;;1.38;;
54787;SDS011;59598;48.112;16.280;2023-02-01T06:33:55;3.05;;;2.15;;
54787;SDS011;59598;48.112;16.280;2023-02-01T06:36:33;2.20;;;2.00;;
54787;SDS011;59598;48.112;16.280;2023-02-01T06:39:04;1.92;;;1.70;;
54787;SDS011;59598;48.112;16.280;2023-02-01T06:41:40;3.33;;;2.40;;
54787;SDS011;59598;48.112;16.280;2023-02-01T06:44:13;3.17;;;2.35;;
54787;SDS011;59598;48.112;16.280;2023-02-01T06:46:44;2.47;;;2.05;;
54787;SDS011;59598;48.112;16.280;2023-02-01T06:49:15;1.80;;;1.63;;
54787;SDS011;59598;48.112;16.280;2023-02-01T06:51:50;4.95;;;1.98;;
54787;SDS011;59598;48.112;16.280;2023-02-01T06:54:23;2.00;;;1.85;;
54787;SDS011;59598;48.112;16.280;2023-02-01T06:56:54;2.30;;;2.00;;
54787;SDS011;59598;48.112;16.280;2023-02-01T06:59:25;2.13;;;1.90;;
54787;SDS011;59598;48.112;16.280;2023-02-01T07:01:59;2.80;;;2.20;;
54787;SDS011;59598;48.112;16.280;2023-02-01T07:04:30;2.13;;;1.92;;
54787;SDS011;59598;48.112;16.280;2023-02-01T07:07:02;2.22;;;1.77;;
54787;SDS011;59598;48.112;16.280;2023-02-01T07:09:33;3.53;;;2.08;;
54787;SDS011;59598;48.112;16.280;2023-02-01T07:12:04;2.25;;;1.80;;
54787;SDS011;59598;48.112;16.280;2023-02-01T07:14:36;2.13;;;1.92;;
54787;SDS011;59598;48.112;16.280;2023-02-01T07:17:07;2.20;;;1.83;;
54787;SDS011;59598;48.112;16.280;2023-02-01T07:19:41;2.58;;;1.80;;
54787;SDS011;59598;48.112;16.280;2023-02-01T07:22:12;3.28;;;1.50;;
54787;SDS011;59598;48.112;16.280;2023-02-01T07:24:46;1.55;;;1.40;;
54787;SDS011;59598;48.112;16.280;2023-02-01T07:27:19;1.88;;;1.38;;
54787;SDS011;59598;48.112;16.280;2023-02-01T07:29:50;2.17;;;1.30;;
54787;SDS011;59598;48.112;16.280;2023-02-01T07:32:23;4.05;;;1.90;;
54787;SDS011;59598;48.112;16.280;2023-02-01T07:34:54;2.60;;;1.75;;
54787;SDS011;59598;48.112;16.280;2023-02-01T07:37:26;2.13;;;1.67;;
54787;SDS011;59598;48.112;16.280;2023-02-01T07:39:57;2.33;;;1.83;;
54787;SDS011;59598;48.112;16.280;2023-02-01T07:42:28;1.95;;;1.75;;
54787;SDS011;59598;48.112;16.280;2023-02-01T07:44:59;3.67;;;2.17;;
54787;SDS011;59598;48.112;16.280;2023-02-01T07:47:31;1.98;;;1.85;;
54787;SDS011;59598;48.112;16.280;2023-02-01T07:50:02;5.25;;;1.80;;
54787;SDS011;59598;48.112;16.280;2023-02-01T07:52:33;3.10;;;2.22;;
54787;SDS011;59598;48.112;16.280;2023-02-01T07:55:05;4.57;;;2.05;;
54787;SDS011;59598;48.112;16.280;2023-02-01T07:57:37;1.90;;;1.77;;
54787;SDS011;59598;48.112;16.280;2023-02-01T08:00:08;2.80;;;2.15;;
54787;SDS011;59598;48.112;16.280;2023-02-01T08:02:58;2.75;;;2.03;;
54787;SDS011;59598;48.112;16.280;2023-02-01T08:05:33;2.83;;;1.80;;
54787;SDS011;59598;48.112;16.280;2023-02-01T08:08:07;4.55;;;2.80;;
54787;SDS011;59598;48.112;16.280;2023-02-01T08:10:38;2.00;;;1.80;;
54787;SDS011;59598;48.112;16.280;2023-02-01T08:13:09;3.78;;;1.85;;
54787;SDS011;59598;48.112;16.280;2023-02-01T08:15:40;2.65;;;2.00;;
54787;SDS011;59598;48.112;16.280;2023-02-01T08:18:12;1.80;;;1.65;;
54787;SDS011;59598;48.112;16.280;2023-02-01T08:20:46;2.90;;;1.90;;
54787;SDS011;59598;48.112;16.280;2023-02-01T08:23:18;2.80;;;2.10;;
54787;SDS011;59598;48.112;16.280;2023-02-01T08:25:51;2.47;;;2.28;;
54787;SDS011;59598;48.112;16.280;2023-02-01T08:28:22;3.28;;;1.92;;
54787;SDS011;59598;48.112;16.280;2023-02-01T08:30:53;2.53;;;1.80;;
54787;SDS011;59598;48.112;16.280;2023-02-01T08:33:24;5.47;;;2.10;;
54787;SDS011;59598;48.112;16.280;2023-02-01T08:35:59;2.67;;;1.98;;
54787;SDS011;59598;48.112;16.280;2023-02-01T08:38:31;2.35;;;2.08;;
54787;SDS011;59598;48.112;16.280;2023-02-01T08:41:09;1.83;;;1.65;;
54787;SDS011;59598;48.112;16.280;2023-02-01T08:43:44;2.10;;;1.88;;
54787;SDS011;59598;48.112;16.280;2023-02-01T08:46:16;3.60;;;1.98;;
54787;SDS011;59598;48.112;16.280;2023-02-01T08:48:48;2.13;;;1.88;;
54787;SDS011;59598;48.112;16.280;2023-02-01T08:51:20;2.22;;;1.98;;
54787;SDS011;59598;48.112;16.280;2023-02-01T08:53:55;3.17;;;1.98;;
54787;SDS011;59598;48.112;16.280;2023-02-01T08:56:26;2.70;;;1.85;;
54787;SDS011;59598;48.112;16.280;2023-02-01T08:58:58;2.42;;;1.77;;
54787;SDS011;59598;48.112;16.280;2023-02-01T09:01:29;3.17;;;1.70;;
54787;SDS011;59598;48.112;16.280;2023-02-01T09:04:02;2.13;;;1.63;;
54787;SDS011;59598;48.112;16.280;2023-02-01T09:06:36;2.58;;;1.88;;
54787;SDS011;59598;48.112;16.280;2023-02-01T09:09:12;4.13;;;1.85;;
54787;SDS011;59598;48.112;16.280;2023-02-01T09:11:46;4.65;;;2.30;;
54787;SDS011;59598;48.112;16.280;2023-02-01T09:14:23;2.42;;;1.98;;
54787;SDS011;59598;48.112;16.280;2023-02-01T09:16:54;2.53;;;1.63;;
54787;SDS011;59598;48.112;16.280;2023-02-01T09:19:28;2.30;;;2.08;;
54787;SDS011;59598;48.112;16.280;2023-02-01T09:22:04;2.38;;;1.92;;
54787;SDS011;59598;48.112;16.280;2023-02-01T09:24:40;1.52;;;1.38;;
54787;SDS011;59598;48.112;16.280;2023-02-01T09:27:12;2.03;;;1.80;;
54787;SDS011;59598;48.112;16.280;2023-02-01T09:29:43;2.80;;;1.90;;
54787;SDS011;59598;48.112;16.280;2023-02-01T09:32:17;2.42;;;1.80;;
54787;SDS011;59598;48.112;16.280;2023-02-01T09:34:49;3.00;;;1.92;;
54787;SDS011;59598;48.112;16.280;2023-02-01T09:37:22;2.15;;;1.52;;
54787;SDS011;59598;48.112;16.280;2023-02-01T09:39:56;1.83;;;1.60;;
54787;SDS011;59598;48.112;16.280;2023-02-01T09:48:13;3.05;;;2.08;;
54787;SDS011;59598;48.112;16.280;2023-02-01T09:50:52;1.88;;;1.40;;
54787;SDS011;59598;48.112;16.280;2023-02-01T09:53:30;2.10;;;1.58;;
54787;SDS011;59598;48.112;16.280;2023-02-01T09:56:13;2.13;;;1.70;;
54787;SDS011;59598;48.112;16.280;2023-02-01T09:58:58;3.15;;;1.50;;
54787;SDS011;59598;48.112;16.280;2023-02-01T10:01:40;1.92;;;1.55;;
54787;SDS011;59598;48.112;16.280;2023-02-01T10:04:13;2.08;;;1.45;;
54787;SDS011;59598;48.112;16.280;2023-02-01T10:18:46;2.63;;;1.63;;
54787;SDS011;59598;48.112;16.280;2023-02-01T10:21:46;2.20;;;1.90;;
54787;SDS011;59598;48.112;16.280;2023-02-01T10:27:19;2.05;;;1.52;;
54787;SDS011;59598;48.112;16.280;2023-02-01T10:33:14;3.65;;;1.90;;
54787;SDS011;59598;48.112;16.280;2023-02-01T10:36:16;3.92;;;1.98;;
54787;SDS011;59598;48.112;16.280;2023-02-01T10:38:53;2.42;;;1.85;;
54787;SDS011;59598;48.112;16.280;2023-02-01T10:41:31;1.52;;;1.42;;
54787;SDS011;59598;48.112;16.280;2023-02-01T10:44:07;3.95;;;1.63;;
54787;SDS011;59598;48.112;16.280;2023-02-01T10:46:46;2.20;;;1.42;;
54787;SDS011;59598;48.112;16.280;2023-02-01T10:49:22;3.37;;;1.40;;
54787;SDS011;59598;48.112;16.280;2023-02-01T10:58:01;3.13;;;1.60;;
54787;SDS011;59598;48.112;16.280;2023-02-01T11:03:30;2.35;;;2.15;;
54787;SDS011;59598;48.112;16.280;2023-02-01T11:06:08;1.75;;;1.20;;
54787;SDS011;59598;48.112;16.280;2023-02-01T11:08:48;3.20;;;1.30;;
54787;SDS011;59598;48.112;16.280;2023-02-01T11:11:21;6.30;;;1.67;;
54787;SDS011;59598;48.112;16.280;2023-02-01T11:13:53;2.22;;;1.83;;
54787;SDS011;59598;48.112;16.280;2023-02-01T11:16:32;2.63;;;2.00;;
54787;SDS011;59598;48.112;16.280;2023-02-01T11:19:07;2.70;;;1.80;;
54787;SDS011;59598;48.112;16.280;2023-02-01T11:21:49;1.65;;;1.50;;
54787;SDS011;59598;48.112;16.280;2023-02-01T11:24:31;1.88;;;1.58;;
54787;SDS011;59598;48.112;16.280;2023-02-01T11:27:04;2.00;;;1.40;;
54787;SDS011;59598;48.112;16.280;2023-02-01T11:29:47;2.55;;;1.73;;
54787;SDS011;59598;48.112;16.280;2023-02-01T11:32:22;3.78;;;1.80;;
54787;SDS011;59598;48.112;16.280;2023-02-01T11:34:56;2.03;;;1.70;;
54787;SDS011;59598;48.112;16.280;2023-02-01T11:37:36;2.50;;;1.88;;
54787;SDS011;59598;48.112;16.280;2023-02-01T11:42:52;2.80;;;1.92;;
54787;SDS011;59598;48.112;16.280;2023-02-01T11:45:30;4.88;;;2.15;;
54787;SDS011;59598;48.112;16.280;2023-02-01T11:48:09;2.85;;;1.83;;
54787;SDS011;59598;48.112;16.280;2023-02-01T12:08:11;4.38;;;1.98;;
54787;SDS011;59598;48.112;16.280;2023-02-01T12:16:28;2.22;;;1.73;;
54787;SDS011;59598;48.112;16.280;2023-02-01T12:27:58;2.90;;;1.77;;
54787;SDS011;59598;48.112;16.280;2023-02-01T12:39:52;1.77;;;1.38;;
54787;SDS011;59598;48.112;16.280;2023-02-01T12:42:48;1.77;;;1.35;;
54787;SDS011;59598;48.112;16.280;2023-02-01T12:45:40;1.90;;;1.63;;
54787;SDS011;59598;48.112;16.280;2023-02-01T12:48:27;1.55;;;1.45;;
54787;SDS011;59598;48.112;16.280;2023-02-01T12:51:33;2.25;;;1.60;;
54787;SDS011;59598;48.112;16.280;2023-02-01T12:57:12;1.35;;;1.25;;
54787;SDS011;59598;48.112;16.280;2023-02-01T12:59:53;1.10;;;1.02;;
54787;SDS011;59598;48.112;16.280;2023-02-01T13:08:26;2.03;;;1.00;;
54787;SDS011;59598;48.112;16.280;2023-02-01T13:11:15;1.27;;;1.15;;
54787;SDS011;59598;48.112;16.280;2023-02-01T13:16:45;1.15;;;1.02;;
54787;SDS011;59598;48.112;16.280;2023-02-01T13:19:29;1.48;;;1.35;;
54787;SDS011;59598;48.112;16.280;2023-02-01T13:25:04;1.75;;;1.60;;
54787;SDS011;59598;48.112;16.280;2023-02-01T13:28:04;1.25;;;1.15;;
54787;SDS011;59598;48.112;16.280;2023-02-01T13:30:45;2.55;;;1.10;;
54787;SDS011;59598;48.112;16.280;2023-02-01T13:40:18;3.08;;;1.20;;
54787;SDS011;59598;48.112;16.280;2023-02-01T13:42:58;1.45;;;1.35;;
54787;SDS011;59598;48.112;16.280;2023-02-01T13:45:42;1.27;;;1.10;;
54787;SDS011;59598;48.112;16.280;2023-02-01T13:51:05;1.08;;;1.00;;
54787;SDS011;59598;48.112;16.280;2023-02-01T13:53:37;1.15;;;1.05;;
54787;SDS011;59598;48.112;16.280;2023-02-01T13:56:19;1.00;;;0.90;;
54787;SDS011;59598;48.112;16.280;2023-02-01T13:58:54;1.98;;;1.17;;
54787;SDS011;59598;48.112;16.280;2023-02-01T14:01:34;1.10;;;1.00;;
54787;SDS011;59598;48.112;16.280;2023-02-01T14:04:06;1.15;;;1.05;;
54787;SDS011;59598;48.112;16.280;2023-02-01T14:07:20;1.90;;;0.82;;
54787;SDS011;59598;48.112;16.280;2023-02-01T14:09:55;1.00;;;1.00;;
54787;SDS011;59598;48.112;16.280;2023-02-01T14:12:48;0.70;;;0.70;;
54787;SDS011;59598;48.112;16.280;2023-02-01T14:15:28;1.13;;;0.77;;
54787;SDS011;59598;48.112;16.280;2023-02-01T14:18:00;2.47;;;0.68;;
54787;SDS011;59598;48.112;16.280;2023-02-01T14:20:41;0.60;;;0.60;;
54787;SDS011;59598;48.112;16.280;2023-02-01T14:23:20;0.98;;;0.60;;
54787;SDS011;59598;48.112;16.280;2023-02-01T14:26:02;0.98;;;0.68;;
54787;SDS011;59598;48.112;16.280;2023-02-01T14:28:36;0.80;;;0.80;;
54787;SDS011;59598;48.112;16.280;2023-02-01T14:31:14;0.80;;;0.80;;
54787;SDS011;59598;48.112;16.280;2023-02-01T14:33:48;0.80;;;0.70;;
54787;SDS011;59598;48.112;16.280;2023-02-01T14:36:21;0.55;;;0.55;;
54787;SDS011;59598;48.112;16.280;2023-02-01T14:38:53;0.90;;;0.70;;
54787;SDS011;59598;48.112;16.280;2023-02-01T14:41:34;0.60;;;0.60;;
54787;SDS011;59598;48.112;16.280;2023-02-01T14:50:10;1.00;;;0.90;;
54787;SDS011;59598;48.112;16.280;2023-02-01T14:55:45;0.90;;;0.90;;
54787;SDS011;59598;48.112;16.280;2023-02-01T15:09:14;2.00;;;1.35;;
54787;SDS011;59598;48.112;16.280;2023-02-01T15:12:03;1.42;;;1.33;;
54787;SDS011;59598;48.112;16.280;2023-02-01T15:14:37;2.00;;;1.65;;
54787;SDS011;59598;48.112;16.280;2023-02-01T15:17:20;1.92;;;1.17;;
54787;SDS011;59598;48.112;16.280;2023-02-01T15:20:15;2.42;;;1.45;;
54787;SDS011;59598;48.112;16.280;2023-02-01T15:22:56;2.63;;;1.23;;
54787;SDS011;59598;48.112;16.280;2023-02-01T15:25:36;1.70;;;1.30;;
54787;SDS011;59598;48.112;16.280;2023-02-01T15:28:10;3.40;;;1.50;;
54787;SDS011;59598;48.112;16.280;2023-02-01T15:30:51;3.88;;;1.40;;
54787;SDS011;59598;48.112;16.280;2023-02-01T15:33:30;2.50;;;1.25;;
54787;SDS011;59598;48.112;16.280;2023-02-01T15:39:32;4.20;;;1.50;;
54787;SDS011;59598;48.112;16.280;2023-02-01T15:42:11;2.80;;;1.83;;
54787;SDS011;59598;48.112;16.280;2023-02-01T15:44:50;2.00;;;1.00;;
54787;SDS011;59598;48.112;16.280;2023-02-01T15:47:26;1.20;;;0.73;;
54787;SDS011;59598;48.112;16.280;2023-02-01T15:50:01;2.17;;;1.33;;
54787;SDS011;59598;48.112;16.280;2023-02-01T16:00:30;3.13;;;1.20;;
54787;SDS011;59598;48.112;16.280;2023-02-01T16:09:03;2.00;;;1.90;;
54787;SDS011;59598;48.112;16.280;2023-02-01T16:11:48;3.28;;;1.70;;
54787;SDS011;59598;48.112;16.280;2023-02-01T16:14:24;2.60;;;1.38;;
54787;SDS011;59598;48.112;16.280;2023-02-01T16:16:58;2.97;;;1.40;;
54787;SDS011;59598;48.112;16.280;2023-02-01T16:19:29;6.47;;;1.83;;
54787;SDS011;59598;48.112;16.280;2023-02-01T16:22:02;6.15;;;1.60;;
54787;SDS011;59598;48.112;16.280;2023-02-01T16:24:33;2.08;;;1.02;;
54787;SDS011;59598;48.112;16.280;2023-02-01T16:27:04;2.03;;;1.50;;
54787;SDS011;59598;48.112;16.280;2023-02-01T16:29:38;4.60;;;1.50;;
54787;SDS011;59598;48.112;16.280;2023-02-01T16:32:16;3.67;;;1.73;;
54787;SDS011;59598;48.112;16.280;2023-02-01T16:34:49;3.35;;;1.50;;
54787;SDS011;59598;48.112;16.280;2023-02-01T16:37:21;2.45;;;1.65;;
54787;SDS011;59598;48.112;16.280;2023-02-01T16:39:54;1.63;;;1.53;;
54787;SDS011;59598;48.112;16.280;2023-02-01T16:42:28;3.75;;;1.30;;
54787;SDS011;59598;48.112;16.280;2023-02-01T16:45:04;3.80;;;1.58;;
54787;SDS011;59598;48.112;16.280;2023-02-01T16:47:38;2.13;;;1.50;;
54787;SDS011;59598;48.112;16.280;2023-02-01T16:50:17;5.68;;;2.92;;
54787;SDS011;59598;48.112;16.280;2023-02-01T16:52:51;4.47;;;1.67;;
54787;SDS011;59598;48.112;16.280;2023-02-01T16:55:23;6.50;;;2.50;;
54787;SDS011;59598;48.112;16.280;2023-02-01T16:57:58;2.22;;;1.70;;
54787;SDS011;59598;48.112;16.280;2023-02-01T17:00:30;5.50;;;1.98;;
54787;SDS011;59598;48.112;16.280;2023-02-01T17:03:07;4.60;;;2.25;;
54787;SDS011;59598;48.112;16.280;2023-02-01T17:05:38;3.78;;;2.20;;
54787;SDS011;59598;48.112;16.280;2023-02-01T17:08:12;5.57;;;2.35;;
54787;SDS011;59598;48.112;16.280;2023-02-01T17:10:49;2.53;;;1.60;;
54787;SDS011;59598;48.112;16.280;2023-02-01T17:13:20;1.80;;;1.70;;
54787;SDS011;59598;48.112;16.280;2023-02-01T17:16:03;1.95;;;1.60;;
54787;SDS011;59598;48.112;16.280;2023-02-01T17:18:56;4.03;;;1.90;;
54787;SDS011;59598;48.112;16.280;2023-02-01T17:22:07;2.65;;;1.60;;
54787;SDS011;59598;48.112;16.280;2023-02-01T17:24:32;3.50;;;2.05;;
54787;SDS011;59598;48.112;16.280;2023-02-01T17:27:06;4.57;;;1.70;;
54787;SDS011;59598;48.112;16.280;2023-02-01T17:29:40;2.53;;;1.92;;
54787;SDS011;59598;48.112;16.280;2023-02-01T17:32:17;3.38;;;2.67;;
54787;SDS011;59598;48.112;16.280;2023-02-01T17:34:51;5.03;;;2.22;;
54787;SDS011;59598;48.112;16.280;2023-02-01T17:37:24;4.55;;;1.73;;
54787;SDS011;59598;48.112;16.280;2023-02-01T17:39:58;3.78;;;2.42;;
54787;SDS011;59598;48.112;16.280;2023-02-01T17:42:30;1.88;;;1.70;;
54787;SDS011;59598;48.112;16.280;2023-02-01T17:45:13;2.58;;;1.52;;
54787;SDS011;59598;48.112;16.280;2023-02-01T17:47:47;1.98;;;1.55;;
54787;SDS011;59598;48.112;16.280;2023-02-01T17:50:29;4.30;;;1.70;;
54787;SDS011;59598;48.112;16.280;2023-02-01T17:53:03;3.70;;;1.83;;
54787;SDS011;59598;48.112;16.280;2023-02-01T17:55:44;2.55;;;1.73;;
54787;SDS011;59598;48.112;16.280;2023-02-01T17:58:18;2.22;;;1.45;;
54787;SDS011;59598;48.112;16.280;2023-02-01T18:00:50;2.10;;;1.95;;
54787;SDS011;59598;48.112;16.280;2023-02-01T18:05:57;8.15;;;1.75;;
54787;SDS011;59598;48.112;16.280;2023-02-01T18:08:31;4.43;;;2.22;;
54787;SDS011;59598;48.112;16.280;2023-02-01T18:11:04;3.33;;;1.80;;
54787;SDS011;59598;48.112;16.280;2023-02-01T18:13:39;3.13;;;1.65;;
54787;SDS011;59598;48.112;16.280;2023-02-01T18:16:16;3.67;;;1.83;;
54787;SDS011;59598;48.112;16.280;2023-02-01T18:18:54;5.88;;;2.55;;
54787;SDS011;59598;48.112;16.280;2023-02-01T18:21:32;1.40;;;1.30;;
54787;SDS011;59598;48.112;16.280;2023-02-01T18:24:06;2.38;;;1.85;;